sensor_id;sensor_type;location;lat;lon;timestamp;P1;durP1;ratioP1;P2;durP2;ratioP2
24787;SDS011;12883;52.662;5.196;2024-03-07T00:02:08;50.00;;;49.70;;
24787;SDS011;12883;52.662;5.196;2024-03-07T00:04:33;48.70;;;48.40;;
24787;SDS011;12883;52.662;5.196;2024-03-07T00:07:01;49.93;;;49.63;;
24787;SDS011;12883;52.662;5.196;2024-03-07T00:09:33;47.80;;;47.47;;
24787;SDS011;12883;52.662;5.196;2024-03-07T00:11:59;47.90;;;47.60;;
24787;SDS011;12883;52.662;5.196;2024-03-07T00:14:25;47.17;;;46.87;;
24787;SDS011;12883;52.662;5.196;2024-03-07T00:16:55;48.03;;;47.73;;
24787;SDS011;12883;52.662;5.196;2024-03-07T00:19:22;50.37;;;50.07;;
24787;SDS011;12883;52.662;5.196;2024-03-07T00:21:51;52.10;;;51.70;;
24787;SDS011;12883;52.662;5.196;2024-03-07T00:24:16;50.53;;;50.23;;
24787;SDS011;12883;52.662;5.196;2024-03-07T00:26:41;51.03;;;50.63;;
24787;SDS011;12883;52.662;5.196;2024-03-07T00:29:07;51.67;;;51.27;;
24787;SDS011;12883;52.662;5.196;2024-03-07T00:31:32;50.73;;;50.33;;
24787;SDS011;12883;52.662;5.196;2024-03-07T00:33:58;50.17;;;49.87;;
24787;SDS011;12883;52.662;5.196;2024-03-07T00:36:24;50.83;;;50.43;;
24787;SDS011;12883;52.662;5.196;2024-03-07T00:38:49;51.90;;;51.53;;
24787;SDS011;12883;52.662;5.196;2024-03-07T00:41:15;51.40;;;51.00;;
24787;SDS011;12883;52.662;5.196;2024-03-07T00:43:42;52.70;;;52.30;;
24787;SDS011;12883;52.662;5.196;2024-03-07T00:46:07;51.77;;;51.47;;
24787;SDS011;12883;52.662;5.196;2024-03-07T00:48:33;51.80;;;51.40;;
24787;SDS011;12883;52.662;5.196;2024-03-07T00:50:58;52.43;;;52.03;;
24787;SDS011;12883;52.662;5.196;2024-03-07T00:53:23;52.63;;;52.23;;
24787;SDS011;12883;52.662;5.196;2024-03-07T00:55:49;51.17;;;50.77;;
24787;SDS011;12883;52.662;5.196;2024-03-07T00:58:14;51.37;;;51.00;;
24787;SDS011;12883;52.662;5.196;2024-03-07T01:00:40;52.43;;;52.03;;
24787;SDS011;12883;52.662;5.196;2024-03-07T01:03:08;52.30;;;51.90;;
24787;SDS011;12883;52.662;5.196;2024-03-07T01:05:38;51.13;;;50.73;;
24787;SDS011;12883;52.662;5.196;2024-03-07T01:08:07;53.27;;;52.87;;
24787;SDS011;12883;52.662;5.196;2024-03-07T01:10:32;52.37;;;52.03;;
24787;SDS011;12883;52.662;5.196;2024-03-07T01:12:58;53.90;;;53.50;;
24787;SDS011;12883;52.662;5.196;2024-03-07T01:15:27;53.00;;;52.60;;
24787;SDS011;12883;52.662;5.196;2024-03-07T01:17:57;53.57;;;53.17;;
24787;SDS011;12883;52.662;5.196;2024-03-07T01:20:22;53.93;;;53.53;;
24787;SDS011;12883;52.662;5.196;2024-03-07T01:22:50;53.50;;;53.10;;
24787;SDS011;12883;52.662;5.196;2024-03-07T01:25:17;53.80;;;53.40;;
24787;SDS011;12883;52.662;5.196;2024-03-07T01:27:42;54.97;;;54.57;;
24787;SDS011;12883;52.662;5.196;2024-03-07T01:30:09;53.10;;;52.70;;
24787;SDS011;12883;52.662;5.196;2024-03-07T01:32:35;52.43;;;52.13;;
24787;SDS011;12883;52.662;5.196;2024-03-07T01:35:00;51.67;;;51.37;;
24787;SDS011;12883;52.662;5.196;2024-03-07T01:37:26;52.90;;;52.50;;
24787;SDS011;12883;52.662;5.196;2024-03-07T01:39:51;52.50;;;52.10;;
24787;SDS011;12883;52.662;5.196;2024-03-07T01:42:17;52.77;;;52.37;;
24787;SDS011;12883;52.662;5.196;2024-03-07T01:44:42;53.17;;;52.83;;
24787;SDS011;12883;52.662;5.196;2024-03-07T01:47:09;53.87;;;53.47;;
24787;SDS011;12883;52.662;5.196;2024-03-07T01:49:35;55.63;;;55.23;;
24787;SDS011;12883;52.662;5.196;2024-03-07T01:52:01;54.10;;;53.70;;
24787;SDS011;12883;52.662;5.196;2024-03-07T01:54:30;53.53;;;53.13;;
24787;SDS011;12883;52.662;5.196;2024-03-07T01:56:57;54.63;;;54.23;;
24787;SDS011;12883;52.662;5.196;2024-03-07T01:59:23;54.27;;;53.97;;
24787;SDS011;12883;52.662;5.196;2024-03-07T02:01:49;53.90;;;53.60;;
24787;SDS011;12883;52.662;5.196;2024-03-07T02:04:15;54.13;;;53.73;;
24787;SDS011;12883;52.662;5.196;2024-03-07T02:06:41;54.53;;;54.13;;
24787;SDS011;12883;52.662;5.196;2024-03-07T02:09:06;54.27;;;53.90;;
24787;SDS011;12883;52.662;5.196;2024-03-07T02:11:32;55.20;;;54.80;;
24787;SDS011;12883;52.662;5.196;2024-03-07T02:13:58;52.57;;;52.27;;
24787;SDS011;12883;52.662;5.196;2024-03-07T02:16:24;54.30;;;53.90;;
24787;SDS011;12883;52.662;5.196;2024-03-07T02:18:50;55.70;;;55.30;;
24787;SDS011;12883;52.662;5.196;2024-03-07T02:21:16;55.30;;;54.90;;
24787;SDS011;12883;52.662;5.196;2024-03-07T02:23:41;55.33;;;54.93;;
24787;SDS011;12883;52.662;5.196;2024-03-07T02:26:07;55.07;;;54.67;;
24787;SDS011;12883;52.662;5.196;2024-03-07T02:28:34;55.33;;;54.93;;
24787;SDS011;12883;52.662;5.196;2024-03-07T02:31:00;55.93;;;55.53;;
24787;SDS011;12883;52.662;5.196;2024-03-07T02:33:26;55.87;;;55.47;;
24787;SDS011;12883;52.662;5.196;2024-03-07T02:35:51;55.57;;;55.17;;
24787;SDS011;12883;52.662;5.196;2024-03-07T02:38:17;51.97;;;51.67;;
24787;SDS011;12883;52.662;5.196;2024-03-07T02:40:44;56.47;;;56.07;;
24787;SDS011;12883;52.662;5.196;2024-03-07T02:43:11;54.70;;;54.30;;
24787;SDS011;12883;52.662;5.196;2024-03-07T02:45:37;53.90;;;53.60;;
24787;SDS011;12883;52.662;5.196;2024-03-07T02:48:02;55.97;;;55.57;;
24787;SDS011;12883;52.662;5.196;2024-03-07T02:50:29;54.17;;;53.77;;
24787;SDS011;12883;52.662;5.196;2024-03-07T02:52:55;55.20;;;54.87;;
24787;SDS011;12883;52.662;5.196;2024-03-07T02:55:20;56.30;;;55.90;;
24787;SDS011;12883;52.662;5.196;2024-03-07T02:57:45;54.20;;;53.90;;
24787;SDS011;12883;52.662;5.196;2024-03-07T03:00:11;55.77;;;55.37;;
24787;SDS011;12883;52.662;5.196;2024-03-07T03:02:51;53.40;;;53.10;;
24787;SDS011;12883;52.662;5.196;2024-03-07T03:05:17;50.93;;;50.63;;
24787;SDS011;12883;52.662;5.196;2024-03-07T03:07:43;53.77;;;53.43;;
24787;SDS011;12883;52.662;5.196;2024-03-07T03:10:17;53.00;;;52.60;;
24787;SDS011;12883;52.662;5.196;2024-03-07T03:12:45;51.63;;;51.33;;
24787;SDS011;12883;52.662;5.196;2024-03-07T03:15:12;52.87;;;52.57;;
24787;SDS011;12883;52.662;5.196;2024-03-07T03:17:37;51.93;;;51.63;;
24787;SDS011;12883;52.662;5.196;2024-03-07T03:20:03;49.40;;;49.10;;
24787;SDS011;12883;52.662;5.196;2024-03-07T03:22:40;50.53;;;50.23;;
24787;SDS011;12883;52.662;5.196;2024-03-07T03:25:05;51.60;;;51.30;;
24787;SDS011;12883;52.662;5.196;2024-03-07T03:27:32;52.07;;;51.77;;
24787;SDS011;12883;52.662;5.196;2024-03-07T03:29:57;50.30;;;50.00;;
24787;SDS011;12883;52.662;5.196;2024-03-07T03:32:25;49.60;;;49.30;;
24787;SDS011;12883;52.662;5.196;2024-03-07T03:34:50;50.37;;;50.07;;
24787;SDS011;12883;52.662;5.196;2024-03-07T03:37:17;51.73;;;51.43;;
24787;SDS011;12883;52.662;5.196;2024-03-07T03:39:42;50.30;;;50.00;;
24787;SDS011;12883;52.662;5.196;2024-03-07T03:42:08;50.67;;;50.37;;
24787;SDS011;12883;52.662;5.196;2024-03-07T03:44:33;51.57;;;51.27;;
24787;SDS011;12883;52.662;5.196;2024-03-07T03:46:59;51.53;;;51.23;;
24787;SDS011;12883;52.662;5.196;2024-03-07T03:49:28;51.63;;;51.33;;
24787;SDS011;12883;52.662;5.196;2024-03-07T03:51:54;51.63;;;51.33;;
24787;SDS011;12883;52.662;5.196;2024-03-07T03:54:19;49.30;;;48.90;;
24787;SDS011;12883;52.662;5.196;2024-03-07T03:56:45;46.53;;;46.23;;
24787;SDS011;12883;52.662;5.196;2024-03-07T03:59:10;49.17;;;48.87;;
24787;SDS011;12883;52.662;5.196;2024-03-07T04:01:35;48.97;;;48.67;;
24787;SDS011;12883;52.662;5.196;2024-03-07T04:04:01;47.43;;;47.13;;
24787;SDS011;12883;52.662;5.196;2024-03-07T04:06:26;47.73;;;47.43;;
24787;SDS011;12883;52.662;5.196;2024-03-07T04:08:52;48.00;;;47.70;;
24787;SDS011;12883;52.662;5.196;2024-03-07T04:11:18;48.37;;;48.07;;
24787;SDS011;12883;52.662;5.196;2024-03-07T04:13:45;47.37;;;47.07;;
24787;SDS011;12883;52.662;5.196;2024-03-07T04:16:11;46.23;;;45.93;;
24787;SDS011;12883;52.662;5.196;2024-03-07T04:18:36;45.33;;;45.03;;
24787;SDS011;12883;52.662;5.196;2024-03-07T04:21:01;44.80;;;44.50;;
24787;SDS011;12883;52.662;5.196;2024-03-07T04:23:27;43.23;;;42.93;;
24787;SDS011;12883;52.662;5.196;2024-03-07T04:25:52;44.73;;;44.43;;
24787;SDS011;12883;52.662;5.196;2024-03-07T04:28:19;43.17;;;42.97;;
24787;SDS011;12883;52.662;5.196;2024-03-07T04:30:45;44.10;;;43.80;;
24787;SDS011;12883;52.662;5.196;2024-03-07T04:33:10;43.43;;;43.23;;
24787;SDS011;12883;52.662;5.196;2024-03-07T04:35:36;44.80;;;44.50;;
24787;SDS011;12883;52.662;5.196;2024-03-07T04:38:01;45.00;;;44.80;;
24787;SDS011;12883;52.662;5.196;2024-03-07T04:40:28;43.53;;;43.23;;
24787;SDS011;12883;52.662;5.196;2024-03-07T04:42:53;44.07;;;43.77;;
24787;SDS011;12883;52.662;5.196;2024-03-07T04:45:18;42.50;;;42.27;;
24787;SDS011;12883;52.662;5.196;2024-03-07T04:47:44;42.67;;;42.37;;
24787;SDS011;12883;52.662;5.196;2024-03-07T04:50:11;43.17;;;42.87;;
24787;SDS011;12883;52.662;5.196;2024-03-07T04:52:38;41.33;;;41.03;;
24787;SDS011;12883;52.662;5.196;2024-03-07T04:55:07;43.00;;;42.80;;
24787;SDS011;12883;52.662;5.196;2024-03-07T04:57:38;40.83;;;40.63;;
24787;SDS011;12883;52.662;5.196;2024-03-07T05:00:08;40.53;;;40.33;;
24787;SDS011;12883;52.662;5.196;2024-03-07T05:02:41;41.63;;;41.40;;
24787;SDS011;12883;52.662;5.196;2024-03-07T05:05:07;41.13;;;40.93;;
24787;SDS011;12883;52.662;5.196;2024-03-07T05:07:32;41.97;;;41.77;;
24787;SDS011;12883;52.662;5.196;2024-03-07T05:09:58;42.17;;;41.97;;
24787;SDS011;12883;52.662;5.196;2024-03-07T05:12:23;42.43;;;42.20;;
24787;SDS011;12883;52.662;5.196;2024-03-07T05:14:49;42.33;;;42.13;;
24787;SDS011;12883;52.662;5.196;2024-03-07T05:17:14;41.43;;;41.23;;
24787;SDS011;12883;52.662;5.196;2024-03-07T05:19:39;42.13;;;41.93;;
24787;SDS011;12883;52.662;5.196;2024-03-07T05:22:05;40.93;;;40.73;;
24787;SDS011;12883;52.662;5.196;2024-03-07T05:24:31;40.50;;;40.30;;
24787;SDS011;12883;52.662;5.196;2024-03-07T05:26:58;40.70;;;40.50;;
24787;SDS011;12883;52.662;5.196;2024-03-07T05:29:24;42.40;;;42.10;;
24787;SDS011;12883;52.662;5.196;2024-03-07T05:31:49;40.73;;;40.53;;
24787;SDS011;12883;52.662;5.196;2024-03-07T05:34:15;41.50;;;41.30;;
24787;SDS011;12883;52.662;5.196;2024-03-07T05:36:43;41.00;;;40.70;;
24787;SDS011;12883;52.662;5.196;2024-03-07T05:39:12;37.73;;;37.53;;
24787;SDS011;12883;52.662;5.196;2024-03-07T05:41:38;38.80;;;38.60;;
24787;SDS011;12883;52.662;5.196;2024-03-07T05:44:05;39.43;;;39.23;;
24787;SDS011;12883;52.662;5.196;2024-03-07T05:46:43;37.53;;;37.33;;
24787;SDS011;12883;52.662;5.196;2024-03-07T05:49:13;38.03;;;37.83;;
24787;SDS011;12883;52.662;5.196;2024-03-07T05:51:39;36.67;;;36.47;;
24787;SDS011;12883;52.662;5.196;2024-03-07T05:54:10;38.40;;;38.20;;
24787;SDS011;12883;52.662;5.196;2024-03-07T05:56:39;37.90;;;37.70;;
24787;SDS011;12883;52.662;5.196;2024-03-07T05:59:08;38.30;;;38.10;;
24787;SDS011;12883;52.662;5.196;2024-03-07T06:01:37;37.80;;;37.60;;
24787;SDS011;12883;52.662;5.196;2024-03-07T06:04:04;37.10;;;36.90;;
24787;SDS011;12883;52.662;5.196;2024-03-07T06:06:31;36.50;;;36.30;;
24787;SDS011;12883;52.662;5.196;2024-03-07T06:09:07;36.80;;;36.60;;
24787;SDS011;12883;52.662;5.196;2024-03-07T06:11:34;36.63;;;36.43;;
24787;SDS011;12883;52.662;5.196;2024-03-07T06:14:03;36.90;;;36.70;;
24787;SDS011;12883;52.662;5.196;2024-03-07T06:16:30;35.97;;;35.77;;
24787;SDS011;12883;52.662;5.196;2024-03-07T06:18:59;35.23;;;35.03;;
24787;SDS011;12883;52.662;5.196;2024-03-07T06:21:25;36.17;;;35.97;;
24787;SDS011;12883;52.662;5.196;2024-03-07T06:23:50;36.47;;;36.27;;
24787;SDS011;12883;52.662;5.196;2024-03-07T06:26:24;35.33;;;35.13;;
24787;SDS011;12883;52.662;5.196;2024-03-07T06:29:03;34.50;;;34.30;;
24787;SDS011;12883;52.662;5.196;2024-03-07T06:31:30;35.97;;;35.77;;
24787;SDS011;12883;52.662;5.196;2024-03-07T06:33:56;34.60;;;34.40;;
24787;SDS011;12883;52.662;5.196;2024-03-07T06:36:22;34.03;;;33.83;;
24787;SDS011;12883;52.662;5.196;2024-03-07T06:38:47;33.50;;;33.30;;
24787;SDS011;12883;52.662;5.196;2024-03-07T06:41:13;32.53;;;32.43;;
24787;SDS011;12883;52.662;5.196;2024-03-07T06:43:38;33.97;;;33.77;;
24787;SDS011;12883;52.662;5.196;2024-03-07T06:46:04;33.07;;;32.87;;
24787;SDS011;12883;52.662;5.196;2024-03-07T06:48:31;34.30;;;34.10;;
24787;SDS011;12883;52.662;5.196;2024-03-07T06:50:57;33.00;;;32.80;;
24787;SDS011;12883;52.662;5.196;2024-03-07T06:53:22;32.80;;;32.60;;
24787;SDS011;12883;52.662;5.196;2024-03-07T06:55:51;32.97;;;32.77;;
24787;SDS011;12883;52.662;5.196;2024-03-07T06:58:18;32.63;;;32.43;;
24787;SDS011;12883;52.662;5.196;2024-03-07T07:00:44;33.17;;;32.97;;
24787;SDS011;12883;52.662;5.196;2024-03-07T07:03:10;33.30;;;33.10;;
24787;SDS011;12883;52.662;5.196;2024-03-07T07:05:37;32.20;;;32.00;;
24787;SDS011;12883;52.662;5.196;2024-03-07T07:08:05;31.63;;;31.53;;
24787;SDS011;12883;52.662;5.196;2024-03-07T07:10:31;31.97;;;31.77;;
24787;SDS011;12883;52.662;5.196;2024-03-07T07:12:57;32.33;;;32.13;;
24787;SDS011;12883;52.662;5.196;2024-03-07T07:15:23;30.23;;;30.10;;
24787;SDS011;12883;52.662;5.196;2024-03-07T07:17:48;33.20;;;33.00;;
24787;SDS011;12883;52.662;5.196;2024-03-07T07:20:15;31.60;;;31.40;;
24787;SDS011;12883;52.662;5.196;2024-03-07T07:22:42;31.00;;;30.90;;
24787;SDS011;12883;52.662;5.196;2024-03-07T07:25:08;28.90;;;28.80;;
24787;SDS011;12883;52.662;5.196;2024-03-07T07:27:48;30.30;;;30.10;;
24787;SDS011;12883;52.662;5.196;2024-03-07T07:30:15;29.87;;;29.73;;
24787;SDS011;12883;52.662;5.196;2024-03-07T07:32:41;27.87;;;27.77;;
24787;SDS011;12883;52.662;5.196;2024-03-07T07:35:08;27.80;;;27.70;;
24787;SDS011;12883;52.662;5.196;2024-03-07T07:37:47;28.60;;;28.50;;
24787;SDS011;12883;52.662;5.196;2024-03-07T07:40:14;28.23;;;28.13;;
24787;SDS011;12883;52.662;5.196;2024-03-07T07:42:43;28.33;;;28.23;;
24787;SDS011;12883;52.662;5.196;2024-03-07T07:45:12;27.37;;;27.27;;
24787;SDS011;12883;52.662;5.196;2024-03-07T07:47:39;27.43;;;27.33;;
24787;SDS011;12883;52.662;5.196;2024-03-07T07:50:06;25.50;;;25.40;;
24787;SDS011;12883;52.662;5.196;2024-03-07T07:52:39;26.47;;;26.37;;
24787;SDS011;12883;52.662;5.196;2024-03-07T07:55:06;25.83;;;25.73;;
24787;SDS011;12883;52.662;5.196;2024-03-07T07:57:39;25.87;;;25.77;;
24787;SDS011;12883;52.662;5.196;2024-03-07T08:00:06;25.03;;;24.93;;
24787;SDS011;12883;52.662;5.196;2024-03-07T08:02:34;26.20;;;26.10;;
24787;SDS011;12883;52.662;5.196;2024-03-07T08:04:59;25.57;;;25.47;;
24787;SDS011;12883;52.662;5.196;2024-03-07T08:07:26;25.80;;;25.70;;
24787;SDS011;12883;52.662;5.196;2024-03-07T08:09:51;25.07;;;24.97;;
24787;SDS011;12883;52.662;5.196;2024-03-07T08:12:16;25.77;;;25.67;;
24787;SDS011;12883;52.662;5.196;2024-03-07T08:14:42;24.57;;;24.47;;
24787;SDS011;12883;52.662;5.196;2024-03-07T08:17:09;26.50;;;26.40;;
24787;SDS011;12883;52.662;5.196;2024-03-07T08:19:36;25.43;;;25.33;;
24787;SDS011;12883;52.662;5.196;2024-03-07T08:22:01;24.37;;;24.27;;
24787;SDS011;12883;52.662;5.196;2024-03-07T08:24:26;23.73;;;23.63;;
24787;SDS011;12883;52.662;5.196;2024-03-07T08:26:53;23.03;;;22.93;;
24787;SDS011;12883;52.662;5.196;2024-03-07T08:29:18;23.30;;;23.20;;
24787;SDS011;12883;52.662;5.196;2024-03-07T08:31:44;24.27;;;24.17;;
24787;SDS011;12883;52.662;5.196;2024-03-07T08:34:09;23.47;;;23.37;;
24787;SDS011;12883;52.662;5.196;2024-03-07T08:36:34;23.30;;;23.20;;
24787;SDS011;12883;52.662;5.196;2024-03-07T08:39:01;23.13;;;23.03;;
24787;SDS011;12883;52.662;5.196;2024-03-07T08:41:28;24.00;;;23.90;;
24787;SDS011;12883;52.662;5.196;2024-03-07T08:43:56;23.20;;;23.10;;
24787;SDS011;12883;52.662;5.196;2024-03-07T08:46:21;22.10;;;22.00;;
24787;SDS011;12883;52.662;5.196;2024-03-07T08:48:47;23.80;;;23.70;;
24787;SDS011;12883;52.662;5.196;2024-03-07T08:51:13;23.53;;;23.43;;
24787;SDS011;12883;52.662;5.196;2024-03-07T08:53:40;23.13;;;23.03;;
24787;SDS011;12883;52.662;5.196;2024-03-07T08:56:05;22.97;;;22.87;;
24787;SDS011;12883;52.662;5.196;2024-03-07T08:58:31;21.83;;;21.73;;
24787;SDS011;12883;52.662;5.196;2024-03-07T09:00:57;21.20;;;21.10;;
24787;SDS011;12883;52.662;5.196;2024-03-07T09:03:23;21.60;;;21.50;;
24787;SDS011;12883;52.662;5.196;2024-03-07T09:05:50;22.30;;;22.20;;
24787;SDS011;12883;52.662;5.196;2024-03-07T09:08:17;22.47;;;22.37;;
24787;SDS011;12883;52.662;5.196;2024-03-07T09:10:42;21.67;;;21.57;;
24787;SDS011;12883;52.662;5.196;2024-03-07T09:13:09;23.50;;;23.40;;
24787;SDS011;12883;52.662;5.196;2024-03-07T09:15:34;22.67;;;22.57;;
24787;SDS011;12883;52.662;5.196;2024-03-07T09:18:01;22.13;;;22.03;;
24787;SDS011;12883;52.662;5.196;2024-03-07T09:20:28;22.97;;;22.87;;
24787;SDS011;12883;52.662;5.196;2024-03-07T09:22:53;22.27;;;22.17;;
24787;SDS011;12883;52.662;5.196;2024-03-07T09:25:19;23.03;;;22.93;;
24787;SDS011;12883;52.662;5.196;2024-03-07T09:27:45;23.37;;;23.27;;
24787;SDS011;12883;52.662;5.196;2024-03-07T09:30:10;21.53;;;21.43;;
24787;SDS011;12883;52.662;5.196;2024-03-07T09:32:49;22.23;;;22.13;;
24787;SDS011;12883;52.662;5.196;2024-03-07T09:35:14;22.80;;;22.70;;
24787;SDS011;12883;52.662;5.196;2024-03-07T09:37:42;22.47;;;22.37;;
24787;SDS011;12883;52.662;5.196;2024-03-07T09:40:08;22.30;;;22.20;;
24787;SDS011;12883;52.662;5.196;2024-03-07T09:42:36;22.10;;;22.00;;
24787;SDS011;12883;52.662;5.196;2024-03-07T09:45:06;21.37;;;21.27;;
24787;SDS011;12883;52.662;5.196;2024-03-07T09:47:33;21.23;;;21.13;;
24787;SDS011;12883;52.662;5.196;2024-03-07T09:49:58;21.17;;;21.07;;
24787;SDS011;12883;52.662;5.196;2024-03-07T09:52:25;21.80;;;21.70;;
24787;SDS011;12883;52.662;5.196;2024-03-07T09:54:52;20.93;;;20.83;;
24787;SDS011;12883;52.662;5.196;2024-03-07T09:57:18;20.63;;;20.53;;
24787;SDS011;12883;52.662;5.196;2024-03-07T09:59:44;19.60;;;19.50;;
24787;SDS011;12883;52.662;5.196;2024-03-07T10:02:11;19.13;;;19.03;;
24787;SDS011;12883;52.662;5.196;2024-03-07T10:04:43;18.10;;;18.00;;
24787;SDS011;12883;52.662;5.196;2024-03-07T10:07:14;17.93;;;17.83;;
24787;SDS011;12883;52.662;5.196;2024-03-07T10:09:40;18.77;;;18.67;;
24787;SDS011;12883;52.662;5.196;2024-03-07T10:12:06;18.03;;;17.93;;
24787;SDS011;12883;52.662;5.196;2024-03-07T10:14:37;17.13;;;17.13;;
24787;SDS011;12883;52.662;5.196;2024-03-07T10:17:14;17.00;;;16.93;;
24787;SDS011;12883;52.662;5.196;2024-03-07T10:19:40;17.37;;;17.27;;
24787;SDS011;12883;52.662;5.196;2024-03-07T10:22:06;16.17;;;16.17;;
24787;SDS011;12883;52.662;5.196;2024-03-07T10:24:31;16.37;;;16.37;;
24787;SDS011;12883;52.662;5.196;2024-03-07T10:26:57;17.57;;;17.47;;
24787;SDS011;12883;52.662;5.196;2024-03-07T10:29:23;16.73;;;16.73;;
24787;SDS011;12883;52.662;5.196;2024-03-07T10:31:50;16.37;;;16.37;;
24787;SDS011;12883;52.662;5.196;2024-03-07T10:34:15;16.10;;;16.07;;
24787;SDS011;12883;52.662;5.196;2024-03-07T10:36:44;18.17;;;18.07;;
24787;SDS011;12883;52.662;5.196;2024-03-07T10:39:10;17.40;;;17.30;;
24787;SDS011;12883;52.662;5.196;2024-03-07T10:41:48;17.40;;;17.30;;
24787;SDS011;12883;52.662;5.196;2024-03-07T10:44:22;19.10;;;19.00;;
24787;SDS011;12883;52.662;5.196;2024-03-07T10:46:54;18.07;;;17.97;;
24787;SDS011;12883;52.662;5.196;2024-03-07T10:49:20;17.83;;;17.83;;
24787;SDS011;12883;52.662;5.196;2024-03-07T10:52:34;18.40;;;18.30;;
24787;SDS011;12883;52.662;5.196;2024-03-07T10:59:56;17.60;;;17.50;;
24787;SDS011;12883;52.662;5.196;2024-03-07T11:02:37;17.07;;;17.07;;
24787;SDS011;12883;52.662;5.196;2024-03-07T11:05:11;18.33;;;18.23;;
24787;SDS011;12883;52.662;5.196;2024-03-07T11:07:38;17.60;;;17.50;;
24787;SDS011;12883;52.662;5.196;2024-03-07T11:10:04;18.90;;;18.80;;
24787;SDS011;12883;52.662;5.196;2024-03-07T11:12:36;17.87;;;17.80;;
24787;SDS011;12883;52.662;5.196;2024-03-07T11:15:06;18.87;;;18.77;;
24787;SDS011;12883;52.662;5.196;2024-03-07T11:17:41;17.90;;;17.80;;
24787;SDS011;12883;52.662;5.196;2024-03-07T11:20:18;18.50;;;18.40;;
24787;SDS011;12883;52.662;5.196;2024-03-07T11:22:59;20.87;;;20.77;;
24787;SDS011;12883;52.662;5.196;2024-03-07T11:25:24;19.03;;;18.93;;
24787;SDS011;12883;52.662;5.196;2024-03-07T11:27:55;19.30;;;19.20;;
24787;SDS011;12883;52.662;5.196;2024-03-07T11:30:25;20.90;;;20.80;;
24787;SDS011;12883;52.662;5.196;2024-03-07T11:32:51;20.43;;;20.33;;
24787;SDS011;12883;52.662;5.196;2024-03-07T11:35:21;20.97;;;20.87;;
24787;SDS011;12883;52.662;5.196;2024-03-07T11:37:57;21.63;;;21.53;;
24787;SDS011;12883;52.662;5.196;2024-03-07T11:42:50;21.57;;;21.47;;
24787;SDS011;12883;52.662;5.196;2024-03-07T11:45:18;22.10;;;22.00;;
24787;SDS011;12883;52.662;5.196;2024-03-07T11:47:51;24.07;;;23.97;;
24787;SDS011;12883;52.662;5.196;2024-03-07T11:50:34;24.93;;;24.83;;
24787;SDS011;12883;52.662;5.196;2024-03-07T11:53:01;25.07;;;24.97;;
24787;SDS011;12883;52.662;5.196;2024-03-07T11:55:30;24.80;;;24.70;;
24787;SDS011;12883;52.662;5.196;2024-03-07T11:58:07;23.83;;;23.73;;
24787;SDS011;12883;52.662;5.196;2024-03-07T12:00:37;24.17;;;24.07;;
24787;SDS011;12883;52.662;5.196;2024-03-07T12:03:12;26.97;;;26.87;;
24787;SDS011;12883;52.662;5.196;2024-03-07T12:05:48;25.80;;;25.70;;
24787;SDS011;12883;52.662;5.196;2024-03-07T12:08:16;25.93;;;25.83;;
24787;SDS011;12883;52.662;5.196;2024-03-07T12:10:42;24.27;;;24.17;;
24787;SDS011;12883;52.662;5.196;2024-03-07T12:13:11;24.63;;;24.53;;
24787;SDS011;12883;52.662;5.196;2024-03-07T12:15:40;25.60;;;25.50;;
24787;SDS011;12883;52.662;5.196;2024-03-07T12:18:06;24.90;;;24.80;;
24787;SDS011;12883;52.662;5.196;2024-03-07T12:20:41;25.17;;;25.07;;
24787;SDS011;12883;52.662;5.196;2024-03-07T12:23:11;24.87;;;24.77;;
24787;SDS011;12883;52.662;5.196;2024-03-07T12:25:38;24.83;;;24.73;;
24787;SDS011;12883;52.662;5.196;2024-03-07T12:28:14;25.87;;;25.77;;
24787;SDS011;12883;52.662;5.196;2024-03-07T12:33:11;24.87;;;24.77;;
24787;SDS011;12883;52.662;5.196;2024-03-07T12:35:39;26.10;;;26.00;;
24787;SDS011;12883;52.662;5.196;2024-03-07T12:38:08;25.73;;;25.63;;
24787;SDS011;12883;52.662;5.196;2024-03-07T12:40:40;24.93;;;24.83;;
24787;SDS011;12883;52.662;5.196;2024-03-07T12:43:39;25.77;;;25.67;;
24787;SDS011;12883;52.662;5.196;2024-03-07T12:45:58;25.50;;;25.40;;
24787;SDS011;12883;52.662;5.196;2024-03-07T12:48:24;25.83;;;25.73;;
24787;SDS011;12883;52.662;5.196;2024-03-07T12:50:50;27.23;;;27.13;;
24787;SDS011;12883;52.662;5.196;2024-03-07T12:53:22;25.97;;;25.87;;
24787;SDS011;12883;52.662;5.196;2024-03-07T12:55:50;27.30;;;27.20;;
24787;SDS011;12883;52.662;5.196;2024-03-07T12:58:17;27.57;;;27.47;;
24787;SDS011;12883;52.662;5.196;2024-03-07T13:00:44;28.07;;;27.97;;
24787;SDS011;12883;52.662;5.196;2024-03-07T13:03:10;27.20;;;27.10;;
24787;SDS011;12883;52.662;5.196;2024-03-07T13:05:36;26.53;;;26.43;;
24787;SDS011;12883;52.662;5.196;2024-03-07T13:08:05;27.23;;;27.13;;
24787;SDS011;12883;52.662;5.196;2024-03-07T13:10:42;26.57;;;26.47;;
24787;SDS011;12883;52.662;5.196;2024-03-07T13:13:08;27.37;;;27.27;;
24787;SDS011;12883;52.662;5.196;2024-03-07T13:15:37;26.73;;;26.63;;
24787;SDS011;12883;52.662;5.196;2024-03-07T13:18:04;27.03;;;26.93;;
24787;SDS011;12883;52.662;5.196;2024-03-07T13:20:34;27.00;;;26.90;;
24787;SDS011;12883;52.662;5.196;2024-03-07T13:23:01;25.07;;;24.97;;
24787;SDS011;12883;52.662;5.196;2024-03-07T13:25:27;24.60;;;24.50;;
24787;SDS011;12883;52.662;5.196;2024-03-07T13:28:11;25.27;;;25.17;;
24787;SDS011;12883;52.662;5.196;2024-03-07T13:30:41;26.30;;;26.20;;
24787;SDS011;12883;52.662;5.196;2024-03-07T13:33:08;25.17;;;25.07;;
24787;SDS011;12883;52.662;5.196;2024-03-07T13:35:39;24.27;;;24.17;;
24787;SDS011;12883;52.662;5.196;2024-03-07T13:38:05;23.83;;;23.73;;
24787;SDS011;12883;52.662;5.196;2024-03-07T13:40:31;23.00;;;22.90;;
24787;SDS011;12883;52.662;5.196;2024-03-07T13:43:00;23.03;;;22.93;;
24787;SDS011;12883;52.662;5.196;2024-03-07T13:45:33;22.83;;;22.73;;
24787;SDS011;12883;52.662;5.196;2024-03-07T13:48:08;23.93;;;23.83;;
24787;SDS011;12883;52.662;5.196;2024-03-07T13:50:35;23.60;;;23.50;;
24787;SDS011;12883;52.662;5.196;2024-03-07T13:53:10;23.27;;;23.17;;
24787;SDS011;12883;52.662;5.196;2024-03-07T14:01:14;22.13;;;22.03;;
24787;SDS011;12883;52.662;5.196;2024-03-07T14:06:19;21.93;;;21.83;;
24787;SDS011;12883;52.662;5.196;2024-03-07T14:09:14;22.67;;;22.57;;
24787;SDS011;12883;52.662;5.196;2024-03-07T14:11:58;21.03;;;20.93;;
24787;SDS011;12883;52.662;5.196;2024-03-07T14:31:04;21.80;;;21.70;;
24787;SDS011;12883;52.662;5.196;2024-03-07T14:33:47;21.13;;;21.03;;
24787;SDS011;12883;52.662;5.196;2024-03-07T14:36:19;20.93;;;20.83;;
24787;SDS011;12883;52.662;5.196;2024-03-07T14:38:57;20.57;;;20.47;;
24787;SDS011;12883;52.662;5.196;2024-03-07T14:44:10;19.77;;;19.67;;
24787;SDS011;12883;52.662;5.196;2024-03-07T14:46:35;19.97;;;19.87;;
24787;SDS011;12883;52.662;5.196;2024-03-07T14:49:02;19.57;;;19.47;;
24787;SDS011;12883;52.662;5.196;2024-03-07T14:51:28;19.73;;;19.63;;
24787;SDS011;12883;52.662;5.196;2024-03-07T14:53:53;19.80;;;19.70;;
24787;SDS011;12883;52.662;5.196;2024-03-07T14:56:18;18.87;;;18.77;;
24787;SDS011;12883;52.662;5.196;2024-03-07T14:58:45;18.33;;;18.23;;
24787;SDS011;12883;52.662;5.196;2024-03-07T15:01:11;18.90;;;18.80;;
24787;SDS011;12883;52.662;5.196;2024-03-07T15:03:38;18.63;;;18.53;;